createdAt,value
2023-05-14T00:02:16.402Z,55.52
2023-05-14T00:04:43.545Z,55.56
2023-05-14T00:07:10.556Z,54.58
2023-05-14T00:09:37.663Z,53.33
2023-05-14T00:12:05.097Z,52.68
2023-05-14T00:14:32.143Z,52.48
2023-05-14T00:16:59.920Z,52.60
2023-05-14T00:19:27.174Z,53.32
2023-05-14T00:21:54.122Z,53.10
2023-05-14T00:24:21.084Z,53.22
2023-05-14T00:26:48.097Z,54.12
2023-05-14T00:29:15.061Z,55.54
2023-05-14T00:31:42.078Z,54.22
2023-05-14T00:34:09.084Z,53.75
2023-05-14T00:36:36.053Z,53.04
2023-05-14T00:39:03.889Z,53.68
2023-05-14T00:41:30.964Z,53.28
2023-05-14T00:43:57.935Z,52.93
2023-05-14T00:46:25.021Z,53.10
2023-05-14T00:48:52.204Z,53.20
2023-05-14T00:51:19.820Z,53.45
2023-05-14T00:53:47.289Z,53.79
2023-05-14T00:56:15.303Z,54.48
2023-05-14T00:58:42.268Z,55.34
2023-05-14T01:01:09.551Z,56.28
2023-05-14T01:03:36.751Z,55.47
2023-05-14T01:06:21.708Z,55.35
2023-05-14T01:09:24.536Z,54.61
2023-05-14T01:12:03.322Z,54.45
2023-05-14T01:14:41.247Z,55.99
2023-05-14T01:17:12.276Z,56.96
2023-05-14T01:19:44.613Z,57.19
2023-05-14T01:22:12.125Z,56.35
2023-05-14T01:24:39.521Z,55.55
2023-05-14T01:27:22.032Z,55.75
2023-05-14T01:30:10.717Z,56.08
2023-05-14T01:32:39.581Z,58.22
2023-05-14T01:35:08.165Z,58.37
2023-05-14T01:37:36.672Z,57.85
2023-05-14T01:40:04.723Z,57.31
2023-05-14T01:42:32.796Z,56.10
2023-05-14T01:45:00.026Z,55.93
2023-05-14T01:47:27.092Z,56.42
2023-05-14T01:49:54.084Z,58.25
2023-05-14T01:52:21.473Z,58.08
2023-05-14T01:54:48.796Z,58.05
2023-05-14T01:57:15.800Z,57.46
2023-05-14T01:59:42.795Z,58.66
2023-05-14T02:02:09.843Z,58.96
2023-05-14T02:04:36.854Z,58.31
2023-05-14T02:07:03.834Z,58.73
2023-05-14T02:09:30.987Z,58.67
2023-05-14T02:11:57.990Z,59.88
2023-05-14T02:14:24.962Z,59.10
2023-05-14T02:16:51.910Z,58.28
2023-05-14T02:19:19.029Z,58.97
2023-05-14T02:21:46.079Z,60.21
2023-05-14T02:24:13.039Z,60.38
2023-05-14T02:26:40.074Z,59.70
2023-05-14T02:29:07.058Z,60.37
2023-05-14T02:31:34.448Z,60.35
2023-05-14T02:34:02.288Z,59.60
2023-05-14T02:36:29.264Z,58.46
2023-05-14T02:38:57.336Z,58.64
2023-05-14T02:41:24.370Z,58.64
2023-05-14T02:43:52.521Z,59.16
2023-05-14T02:46:19.764Z,58.79
2023-05-14T02:48:46.718Z,58.92
2023-05-14T02:51:13.783Z,58.50
2023-05-14T02:53:40.735Z,58.43
2023-05-14T02:56:08.321Z,58.26
2023-05-14T02:58:35.475Z,58.52
2023-05-14T03:01:02.531Z,59.99
2023-05-14T03:03:30.906Z,60.37
2023-05-14T03:05:58.503Z,59.92
2023-05-14T03:08:25.914Z,60.08
2023-05-14T03:10:52.908Z,60.96
2023-05-14T03:13:20.961Z,60.63
2023-05-14T03:15:48.072Z,60.87
2023-05-14T03:18:15.247Z,60.44
2023-05-14T03:20:42.510Z,60.79
2023-05-14T03:23:09.626Z,61.95
2023-05-14T03:25:36.584Z,62.50
2023-05-14T03:28:04.249Z,61.91
2023-05-14T03:30:31.325Z,61.75
2023-05-14T03:32:58.750Z,62.54
2023-05-14T03:35:25.874Z,61.63
2023-05-14T03:37:53.253Z,62.51
2023-05-14T03:40:23.425Z,62.01
2023-05-14T03:42:51.061Z,61.80
2023-05-14T03:45:18.033Z,62.01
2023-05-14T03:47:45.075Z,61.52
2023-05-14T03:50:12.069Z,61.35
2023-05-14T03:52:39.271Z,62.09
2023-05-14T03:55:06.803Z,61.79
2023-05-14T03:57:33.832Z,61.15
2023-05-14T04:00:00.834Z,62.56
2023-05-14T04:02:28.057Z,63.85
2023-05-14T04:04:55.129Z,64.12
2023-05-14T04:07:22.335Z,62.79
2023-05-14T04:09:49.366Z,61.74
2023-05-14T04:12:16.387Z,61.37
2023-05-14T04:14:43.464Z,62.71
2023-05-14T04:17:10.438Z,62.17
2023-05-14T04:19:37.494Z,62.04
2023-05-14T04:22:04.781Z,61.59
2023-05-14T04:24:31.806Z,61.54
2023-05-14T04:26:58.779Z,61.49
2023-05-14T04:29:25.885Z,61.05
2023-05-14T04:31:53.895Z,62.26
2023-05-14T04:34:20.874Z,61.84
2023-05-14T04:36:47.917Z,61.54
2023-05-14T04:39:15.167Z,61.34
2023-05-14T04:41:42.883Z,60.92
2023-05-14T04:44:09.856Z,60.55
2023-05-14T04:46:36.895Z,60.59
2023-05-14T04:49:04.384Z,60.38
2023-05-14T04:51:31.818Z,60.04
2023-05-14T04:53:58.886Z,59.64
2023-05-14T04:56:26.068Z,59.39
2023-05-14T04:58:53.048Z,59.14
2023-05-14T05:01:20.210Z,58.83
2023-05-14T05:03:47.275Z,58.96
2023-05-14T05:06:14.255Z,59.13
2023-05-14T05:08:41.680Z,59.37
2023-05-14T05:11:08.806Z,59.12
2023-05-14T05:13:36.032Z,58.90
2023-05-14T05:16:03.083Z,58.71
2023-05-14T05:18:30.205Z,58.61
2023-05-14T05:20:57.298Z,58.45
2023-05-14T05:23:24.347Z,58.23
2023-05-14T05:25:51.353Z,58.40
2023-05-14T05:28:18.336Z,59.14
2023-05-14T05:30:45.513Z,59.14
2023-05-14T05:33:13.024Z,59.79
2023-05-14T05:35:40.112Z,60.55
2023-05-14T05:38:07.414Z,59.58
2023-05-14T05:40:34.429Z,58.93
2023-05-14T05:43:01.442Z,58.59
2023-05-14T05:45:28.479Z,58.70
2023-05-14T05:47:55.509Z,58.71
2023-05-14T05:50:22.923Z,58.37
2023-05-14T05:52:50.265Z,58.56
2023-05-14T05:55:17.249Z,59.13
2023-05-14T05:57:44.253Z,58.79
2023-05-14T06:00:14.555Z,58.70
2023-05-14T06:02:41.987Z,58.50
2023-05-14T06:05:10.191Z,58.54
2023-05-14T06:07:37.231Z,59.00
2023-05-14T06:10:05.050Z,59.40
2023-05-14T06:12:32.116Z,59.10
2023-05-14T06:14:59.097Z,58.86
2023-05-14T06:17:26.243Z,58.62
2023-05-14T06:19:53.498Z,58.59
2023-05-14T06:22:20.574Z,58.31
2023-05-14T06:24:48.462Z,59.05
2023-05-14T06:27:15.570Z,59.00
2023-05-14T06:29:42.683Z,59.36
2023-05-14T06:32:10.438Z,59.57
2023-05-14T06:34:37.549Z,59.43
2023-05-14T06:37:04.810Z,59.96
2023-05-14T06:39:31.849Z,60.15
2023-05-14T06:41:58.838Z,60.24
2023-05-14T06:44:25.866Z,59.72
2023-05-14T06:46:52.969Z,59.21
2023-05-14T06:49:19.984Z,59.27
2023-05-14T06:51:47.320Z,59.80
2023-05-14T06:54:14.373Z,59.63
2023-05-14T06:56:41.382Z,59.09
2023-05-14T06:59:08.397Z,58.71
2023-05-14T07:01:35.471Z,57.90
2023-05-14T07:04:02.615Z,57.04
2023-05-14T07:06:29.633Z,56.51
2023-05-14T07:08:56.618Z,55.92
2023-05-14T07:11:23.671Z,55.83
2023-05-14T07:13:50.700Z,55.14
2023-05-14T07:16:17.810Z,54.42
2023-05-14T07:18:45.764Z,54.18
2023-05-14T07:21:12.835Z,54.40
2023-05-14T07:23:39.893Z,54.80
2023-05-14T07:26:08.164Z,54.14
2023-05-14T07:28:35.226Z,53.49
2023-05-14T07:31:09.226Z,53.32
2023-05-14T07:33:36.742Z,53.37
2023-05-14T07:36:03.983Z,53.76
2023-05-14T07:38:31.301Z,53.03
2023-05-14T07:40:58.658Z,52.52
2023-05-14T07:43:26.198Z,52.42
2023-05-14T07:45:53.337Z,51.96
2023-05-14T07:48:20.479Z,52.09
2023-05-14T07:50:48.915Z,51.71
2023-05-14T07:53:16.050Z,51.88
2023-05-14T07:55:44.957Z,51.91
2023-05-14T07:58:12.002Z,51.41
2023-05-14T08:00:39.327Z,50.68
2023-05-14T08:03:06.811Z,50.36
2023-05-14T08:05:33.969Z,49.65
2023-05-14T08:08:01.019Z,48.92
2023-05-14T08:10:28.313Z,48.80
2023-05-14T08:12:55.489Z,49.18
2023-05-14T08:15:25.179Z,49.41
2023-05-14T08:17:54.180Z,48.92
2023-05-14T08:20:21.312Z,49.57
2023-05-14T08:22:48.531Z,50.21
2023-05-14T08:25:15.486Z,50.06
2023-05-14T08:27:42.554Z,49.85
2023-05-14T08:30:09.818Z,48.93
2023-05-14T08:32:38.828Z,49.77
2023-05-14T08:35:06.958Z,49.27
2023-05-14T08:37:34.003Z,49.15
2023-05-14T08:40:01.091Z,48.99
2023-05-14T08:42:28.960Z,49.05
2023-05-14T08:45:03.802Z,48.68
2023-05-14T08:47:31.528Z,48.32
2023-05-14T08:50:06.670Z,47.97
2023-05-14T08:52:34.989Z,47.88
2023-05-14T08:55:05.813Z,48.02
2023-05-14T08:57:34.429Z,47.75
2023-05-14T09:00:07.506Z,47.11
2023-05-14T09:02:36.093Z,46.66
2023-05-14T09:05:04.285Z,46.66
2023-05-14T09:07:31.922Z,46.19
2023-05-14T09:09:59.448Z,46.48
2023-05-14T09:12:26.528Z,46.32
2023-05-14T09:14:56.454Z,45.42
2023-05-14T09:17:26.091Z,46.31
2023-05-14T09:19:53.426Z,45.86
2023-05-14T09:22:21.215Z,45.39
2023-05-14T09:25:06.183Z,44.99
2023-05-14T09:27:33.605Z,44.46
2023-05-14T09:30:13.586Z,43.38
2023-05-14T09:32:44.329Z,43.38
2023-05-14T09:35:17.755Z,42.87
2023-05-14T09:37:50.193Z,42.71
2023-05-14T09:40:18.724Z,43.14
2023-05-14T09:42:46.033Z,43.88
2023-05-14T09:45:13.078Z,43.32
2023-05-14T09:47:40.424Z,43.11
2023-05-14T09:50:08.409Z,43.11
2023-05-14T09:52:36.094Z,43.62
2023-05-14T09:55:03.382Z,43.80
2023-05-14T09:57:30.459Z,44.23
2023-05-14T09:59:57.523Z,43.42
2023-05-14T10:02:26.633Z,42.21
2023-05-14T10:04:54.889Z,42.56
2023-05-14T10:07:33.799Z,42.34
2023-05-14T10:10:03.987Z,43.14
2023-05-14T10:12:34.983Z,43.31
2023-05-14T10:15:07.053Z,43.26
2023-05-14T10:17:36.947Z,43.83
2023-05-14T10:20:05.960Z,42.80
2023-05-14T10:22:35.320Z,42.38
2023-05-14T10:25:04.135Z,41.81
2023-05-14T10:27:32.138Z,41.67
2023-05-14T10:29:59.208Z,41.63
2023-05-14T10:32:26.681Z,41.13
2023-05-14T10:34:54.182Z,41.25
2023-05-14T10:37:27.394Z,42.09
2023-05-14T10:39:59.171Z,41.33
2023-05-14T10:42:28.715Z,41.23
2023-05-14T10:45:02.001Z,40.89
2023-05-14T10:47:29.435Z,40.03
2023-05-14T10:49:58.910Z,41.64
2023-05-14T10:52:27.051Z,41.25
2023-05-14T10:55:00.644Z,40.38
2023-05-14T10:57:31.792Z,40.46
2023-05-14T11:00:00.707Z,40.39
2023-05-14T11:02:37.378Z,40.23
2023-05-14T11:05:08.423Z,40.86
2023-05-14T11:07:40.486Z,40.76
2023-05-14T11:10:09.601Z,40.78
2023-05-14T11:12:39.263Z,40.62
2023-05-14T11:15:09.595Z,41.28
2023-05-14T11:17:37.602Z,41.19
2023-05-14T11:20:06.655Z,42.09
2023-05-14T11:22:37.896Z,42.01
2023-05-14T11:25:06.500Z,41.84
2023-05-14T11:27:39.646Z,41.82
2023-05-14T11:30:14.340Z,40.64
2023-05-14T11:32:42.057Z,40.39
2023-05-14T11:35:09.326Z,40.12
2023-05-14T11:37:36.429Z,39.60
2023-05-14T11:40:14.123Z,39.25
2023-05-14T11:42:41.235Z,40.05
2023-05-14T11:45:12.281Z,40.45
2023-05-14T11:47:41.490Z,40.41
2023-05-14T11:50:09.847Z,40.37
2023-05-14T11:52:41.509Z,41.24
2023-05-14T11:55:12.968Z,40.34
2023-05-14T11:57:41.232Z,40.38
2023-05-14T12:00:21.553Z,40.04
2023-05-14T12:02:50.307Z,39.69
2023-05-14T12:05:17.566Z,40.00
2023-05-14T12:07:45.463Z,40.63
2023-05-14T12:10:13.219Z,40.72
2023-05-14T12:12:40.196Z,40.02
2023-05-14T12:15:14.690Z,41.06
2023-05-14T12:17:42.367Z,42.04
2023-05-14T12:20:11.185Z,41.10
2023-05-14T12:25:13.517Z,39.89
2023-05-14T12:27:40.769Z,38.65
2023-05-14T12:32:41.300Z,38.35
2023-05-14T12:35:09.295Z,38.89
2023-05-14T12:37:37.652Z,38.90
2023-05-14T12:40:09.482Z,37.98
2023-05-14T12:43:23.194Z,38.03
2023-05-14T12:45:50.175Z,38.69
2023-05-14T12:48:17.237Z,38.54
2023-05-14T12:50:44.190Z,39.34
2023-05-14T12:53:11.260Z,37.76
2023-05-14T12:55:38.286Z,38.15
2023-05-14T12:58:05.300Z,38.23
2023-05-14T13:00:32.303Z,38.16
2023-05-14T13:02:59.301Z,38.49
2023-05-14T13:05:26.511Z,37.43
2023-05-14T13:07:53.987Z,37.27
2023-05-14T13:10:21.113Z,37.72
2023-05-14T13:12:48.174Z,37.40
2023-05-14T13:15:15.236Z,38.53
2023-05-14T13:17:42.339Z,38.46
2023-05-14T13:20:09.951Z,37.95
2023-05-14T13:22:36.959Z,38.36
2023-05-14T13:25:04.519Z,38.64
2023-05-14T13:27:31.759Z,38.16
2023-05-14T13:29:58.786Z,37.62
2023-05-14T13:32:26.111Z,37.47
2023-05-14T13:34:53.160Z,36.72
2023-05-14T13:37:20.210Z,36.82
2023-05-14T13:39:48.009Z,36.83
2023-05-14T13:42:16.095Z,36.75
2023-05-14T13:44:43.072Z,36.49
2023-05-14T13:47:10.606Z,36.71
2023-05-14T13:49:37.570Z,36.73
2023-05-14T13:52:05.003Z,36.33
2023-05-14T13:54:32.020Z,35.98
2023-05-14T13:56:59.077Z,35.45
2023-05-14T13:59:26.378Z,35.79
2023-05-14T14:01:53.522Z,36.12
2023-05-14T14:04:20.727Z,36.33
2023-05-14T14:06:47.738Z,36.13
2023-05-14T14:09:14.903Z,35.24
2023-05-14T14:11:41.931Z,34.87
2023-05-14T14:14:08.965Z,34.63
2023-05-14T14:16:36.393Z,35.18
2023-05-14T14:19:03.587Z,35.00
2023-05-14T14:21:31.296Z,34.57
2023-05-14T14:23:58.420Z,34.68
2023-05-14T14:26:25.523Z,33.75
2023-05-14T14:28:52.503Z,34.43
2023-05-14T14:31:20.880Z,34.14
2023-05-14T14:33:47.898Z,34.13
2023-05-14T14:36:14.970Z,34.38
2023-05-14T14:38:42.154Z,34.46
2023-05-14T14:41:10.323Z,35.16
2023-05-14T14:43:40.370Z,35.78
2023-05-14T14:46:09.389Z,35.70
2023-05-14T14:48:39.292Z,35.03
2023-05-14T14:51:07.425Z,35.33
2023-05-14T14:53:35.836Z,36.34
2023-05-14T14:56:03.641Z,36.55
2023-05-14T14:58:31.346Z,36.50
2023-05-14T15:00:58.862Z,35.57
2023-05-14T15:03:26.469Z,35.54
2023-05-14T15:05:53.953Z,35.31
2023-05-14T15:08:26.527Z,36.26
2023-05-14T15:10:55.067Z,36.07
2023-05-14T15:13:22.286Z,35.99
2023-05-14T15:15:50.976Z,35.67
2023-05-14T15:18:18.104Z,36.27
2023-05-14T15:20:45.207Z,35.90
2023-05-14T15:23:12.214Z,35.17
2023-05-14T15:25:39.323Z,35.31
2023-05-14T15:28:07.801Z,35.58
2023-05-14T15:30:35.284Z,35.19
2023-05-14T15:33:02.406Z,35.05
2023-05-14T15:35:29.486Z,34.56
2023-05-14T15:37:57.492Z,34.59
2023-05-14T15:40:24.961Z,34.77
2023-05-14T15:42:52.196Z,35.16
2023-05-14T15:45:19.364Z,35.29
2023-05-14T15:47:46.460Z,35.37
2023-05-14T15:50:13.520Z,35.19
2023-05-14T15:52:41.645Z,33.96
2023-05-14T15:55:09.069Z,33.57
2023-05-14T15:57:36.137Z,34.19
2023-05-14T16:00:13.080Z,35.03
2023-05-14T16:02:40.426Z,35.27
2023-05-14T16:05:08.553Z,34.97
2023-05-14T16:07:36.464Z,33.93
2023-05-14T16:10:04.077Z,34.31
2023-05-14T16:12:31.228Z,34.87
2023-05-14T16:14:58.596Z,35.14
2023-05-14T16:17:27.835Z,35.23
2023-05-14T16:19:56.253Z,35.72
2023-05-14T16:22:23.703Z,35.17
2023-05-14T16:24:50.970Z,35.19
2023-05-14T16:27:19.294Z,35.13
2023-05-14T16:29:46.368Z,36.09
2023-05-14T16:32:13.643Z,36.60
2023-05-14T16:34:40.911Z,36.82
2023-05-14T16:37:08.252Z,37.07
2023-05-14T16:39:35.249Z,37.38
2023-05-14T16:42:02.204Z,37.60
2023-05-14T16:44:29.281Z,37.94
2023-05-14T16:46:56.501Z,38.00
2023-05-14T16:49:23.611Z,38.37
2023-05-14T16:51:50.720Z,38.91
2023-05-14T16:54:17.730Z,39.27
2023-05-14T16:56:48.360Z,39.72
2023-05-14T16:59:16.186Z,39.00
2023-05-14T17:01:44.405Z,38.98
2023-05-14T17:04:11.558Z,40.16
2023-05-14T17:06:38.643Z,39.85
2023-05-14T17:09:07.008Z,39.99
2023-05-14T17:11:34.059Z,39.67
2023-05-14T17:14:01.191Z,40.05
2023-05-14T17:16:28.777Z,40.34
2023-05-14T17:18:56.008Z,40.10
2023-05-14T17:21:23.101Z,39.76
2023-05-14T17:23:50.331Z,39.77
2023-05-14T17:26:17.375Z,39.48
2023-05-14T17:28:44.483Z,39.35
2023-05-14T17:31:11.534Z,39.27
2023-05-14T17:33:38.688Z,39.63
2023-05-14T17:36:05.886Z,39.34
2023-05-14T17:38:32.856Z,39.55
2023-05-14T17:40:59.909Z,39.64
2023-05-14T17:43:26.963Z,40.62
2023-05-14T17:45:54.882Z,40.63
2023-05-14T17:48:23.284Z,41.29
2023-05-14T17:50:51.828Z,41.82
2023-05-14T17:53:18.977Z,42.08
2023-05-14T17:55:46.011Z,42.27
2023-05-14T17:58:15.604Z,42.36
2023-05-14T18:00:43.750Z,43.23
2023-05-14T18:03:11.708Z,43.15
2023-05-14T18:05:39.408Z,42.80
2023-05-14T18:08:06.588Z,43.38
2023-05-14T18:10:33.574Z,43.19
2023-05-14T18:13:00.915Z,43.30
2023-05-14T18:15:28.063Z,43.04
2023-05-14T18:17:55.377Z,43.00
2023-05-14T18:20:22.652Z,43.49
2023-05-14T18:22:50.845Z,43.28
2023-05-14T18:25:18.212Z,43.36
2023-05-14T18:27:45.704Z,43.62
2023-05-14T18:30:15.264Z,43.93
2023-05-14T18:32:44.613Z,44.34
2023-05-14T18:35:12.961Z,44.67
2023-05-14T18:37:41.247Z,44.82
2023-05-14T18:40:09.840Z,45.19
2023-05-14T18:42:37.352Z,44.84
2023-05-14T18:45:05.327Z,45.18
2023-05-14T18:47:33.821Z,45.82
2023-05-14T18:50:02.246Z,46.11
2023-05-14T18:52:30.041Z,46.20
2023-05-14T18:54:57.707Z,46.96
2023-05-14T18:57:27.506Z,47.28
2023-05-14T18:59:54.978Z,48.49
2023-05-14T19:02:22.270Z,48.91
2023-05-14T19:04:52.656Z,49.44
2023-05-14T19:07:21.925Z,49.57
2023-05-14T19:09:49.360Z,49.13
2023-05-14T19:12:17.116Z,48.05
2023-05-14T19:14:44.311Z,47.40
2023-05-14T19:17:11.887Z,47.11
2023-05-14T19:19:39.867Z,48.05
2023-05-14T19:22:07.493Z,48.85
2023-05-14T19:24:34.844Z,49.55
2023-05-14T19:27:01.933Z,48.92
2023-05-14T19:29:29.262Z,49.42
2023-05-14T19:31:56.403Z,50.41
2023-05-14T19:34:23.624Z,50.82
2023-05-14T19:36:50.980Z,51.21
2023-05-14T19:39:17.988Z,51.00
2023-05-14T19:41:45.381Z,50.69
2023-05-14T19:44:12.431Z,50.28
2023-05-14T19:46:40.642Z,50.77
2023-05-14T19:49:07.652Z,51.65
2023-05-14T19:51:34.696Z,52.49
2023-05-14T19:54:01.670Z,51.95
2023-05-14T19:56:29.089Z,51.44
2023-05-14T19:58:56.330Z,51.48
2023-05-14T20:01:23.406Z,51.82
2023-05-14T20:03:50.569Z,52.68
2023-05-14T20:06:17.689Z,53.14
2023-05-14T20:08:45.549Z,53.98
2023-05-14T20:11:12.822Z,53.84
2023-05-14T20:13:39.763Z,54.53
2023-05-14T20:16:06.898Z,54.08
2023-05-14T20:18:33.989Z,54.06
2023-05-14T20:21:01.430Z,54.82
2023-05-14T20:23:28.654Z,55.47
2023-05-14T20:25:55.844Z,54.35
2023-05-14T20:28:22.793Z,54.43
2023-05-14T20:30:49.828Z,54.30
2023-05-14T20:33:17.151Z,53.85
2023-05-14T20:35:44.345Z,53.64
2023-05-14T20:38:13.014Z,53.25
2023-05-14T20:40:40.500Z,53.04
2023-05-14T20:43:07.558Z,53.08
2023-05-14T20:45:34.590Z,52.79
2023-05-14T20:48:01.785Z,52.49
2023-05-14T20:50:28.959Z,52.22
2023-05-14T20:52:55.962Z,52.11
2023-05-14T20:55:23.540Z,52.03
2023-05-14T20:57:50.939Z,51.58
2023-05-14T21:00:18.462Z,51.99
2023-05-14T21:02:45.862Z,52.13
2023-05-14T21:05:14.285Z,52.91
2023-05-14T21:07:41.333Z,53.14
2023-05-14T21:10:09.588Z,54.11
2023-05-14T21:12:36.684Z,54.29
2023-05-14T21:15:03.968Z,54.26
2023-05-14T21:17:31.114Z,54.08
2023-05-14T21:19:58.149Z,53.11
2023-05-14T21:22:25.357Z,53.20
2023-05-14T21:24:52.380Z,53.48
2023-05-14T21:27:19.432Z,54.53
2023-05-14T21:29:46.784Z,54.92
2023-05-14T21:32:13.972Z,54.62
2023-05-14T21:34:40.977Z,54.51
2023-05-14T21:37:08.007Z,55.11
2023-05-14T21:39:35.202Z,54.82
2023-05-14T21:42:02.322Z,54.32
2023-05-14T21:44:29.338Z,55.01
2023-05-14T21:46:56.455Z,56.11
2023-05-14T21:49:23.754Z,55.46
2023-05-14T21:51:53.273Z,55.87
2023-05-14T21:54:21.107Z,56.80
2023-05-14T21:56:48.320Z,56.88
2023-05-14T21:59:15.413Z,56.48
2023-05-14T22:02:00.718Z,57.52
2023-05-14T22:04:30.056Z,57.58
2023-05-14T22:06:57.043Z,56.42
2023-05-14T22:09:24.122Z,55.95
2023-05-14T22:11:51.123Z,55.30
2023-05-14T22:14:18.337Z,56.33
2023-05-14T22:16:45.390Z,56.42
2023-05-14T22:19:12.541Z,55.92
2023-05-14T22:21:39.561Z,57.39
2023-05-14T22:24:06.893Z,57.30
2023-05-14T22:26:35.018Z,57.46
2023-05-14T22:29:02.035Z,57.44
2023-05-14T22:31:30.160Z,57.74
2023-05-14T22:33:57.175Z,57.35
2023-05-14T22:36:24.145Z,57.07
2023-05-14T22:38:51.202Z,57.88
2023-05-14T22:41:18.400Z,58.54
2023-05-14T22:43:48.826Z,58.59
2023-05-14T22:46:16.274Z,58.27
2023-05-14T22:48:43.394Z,58.04
2023-05-14T22:51:10.524Z,57.93
2023-05-14T22:53:37.553Z,58.71
2023-05-14T22:56:04.907Z,58.77
2023-05-14T22:58:31.959Z,58.90
2023-05-14T23:00:59.099Z,59.44
2023-05-14T23:03:26.186Z,59.14
2023-05-14T23:05:53.522Z,58.98
2023-05-14T23:08:20.653Z,59.37
2023-05-14T23:10:47.705Z,60.21
2023-05-14T23:13:14.824Z,60.44
2023-05-14T23:15:44.089Z,60.60
2023-05-14T23:18:11.165Z,60.82
2023-05-14T23:20:38.156Z,60.52
2023-05-14T23:23:06.538Z,61.34
2023-05-14T23:25:33.594Z,60.55
2023-05-14T23:28:00.786Z,61.30
2023-05-14T23:30:27.886Z,61.86
2023-05-14T23:32:54.948Z,61.03
2023-05-14T23:35:22.136Z,60.15
2023-05-14T23:37:51.095Z,60.95
2023-05-14T23:40:18.350Z,60.53
2023-05-14T23:42:45.439Z,59.75
2023-05-14T23:45:13.524Z,60.01
2023-05-14T23:47:41.389Z,60.06
2023-05-14T23:50:08.667Z,61.72
2023-05-14T23:52:35.697Z,61.79
2023-05-14T23:55:02.785Z,61.54
2023-05-14T23:57:29.995Z,61.03
2023-05-14T23:59:57.203Z,61.42
